Valdez Pioneer Field
PAVD : now visible

Airfield :











YOU CAN JOIN US ON...

 
LOGIN :

Register | Disclaimer

   EN    FR    IT 

 









Legend :    VFR   Marginal VFR   IFR   Intensive IFR   Very Intensive IFR
Visi :
Ceiling :
>= 8 km
>= 3000ft
5 to 8 km
1000 to 3000 ft
1500m to 5 km
500 to 1000 ft
800 to 1500m
200 to 500 ft
< 800m
< 200 ft
Symbols :   Thunderstorms  Fog  Heavy snow  Heavy precipitations  Wind > 20 kt






- Airport Elevation : 121 ft
- IATA code : VDZ


PAVD - Valdez Pioneer Field

CURRENT METAR :
  • 091856Z 00000KT 10SM FEW007 SCT025 BKN075 13/11 A2979 RMK AO2 SLP085 T01280111

EXPIRED METARs :
  • 091756Z 00000KT 10SM FEW007 SCT025 BKN075 12/11 A2979 RMK AO2 SLP085 60000 T01220111 10122 20094
  • 091656Z 27003KT 10SM FEW007 SCT025 BKN080 12/11 A2980 RMK AO2 SLP089 T01170106

TAF PAVD
Valid from the 09 at 18:00 until the 10 at 18:00 UTC


091739Z 0918/1018 VRB04KT P6SM FEW007 BKN045
FM092100 24007KT P6SM VCSH FEW012 BKN060
FM100600 08005KT P6SM SCT025 BKN050 AMD LTD TO CLD VIS AND WIND
PAZA FIR / North America



MET'MAP, your aeronautical weather chart ! - Copyright ORBIFLY December 2007 - Disclaimer

ORBIFLY MET'MAP TEAM :

Programming & Development : Alexandra Zaïnal
Concept & original design : Baudouin d'Aumeries
Assistance for programming : Marc-Olivier Méhu
Technical & hardware support : Manuel Goepfert

Contact : metmap@orbifly.com




SOURCES & CREDITS :

   NOAA       Earth
Advisory